Airfield :
LOGIN :

Register | Disclaimer

   EN    FR    IT 

 










Legend :    VFR   Marginal VFR   IFR   Intensive IFR   Very Intensive IFR
Visi :
Ceiling :
>= 8 km
>= 3000ft
5 to 8 km
1000 to 3000 ft
1500m to 5 km
500 to 1000 ft
800 to 1500m
200 to 500 ft
< 800m
< 200 ft
Symbols :   Thunderstorms  Fog  Heavy snow  Heavy precipitations  Wind > 20 kt
SIGMETs :     Misc.  Thunderstorms  Icing  Turbulence  Mountain Waves  Volcanic Ashes






- Airport Elevation : 1504 ft
- IATA code : PNA


LEPP - Noain Pamplona

CURRENT METAR :
  • 180200Z AUTO 29004KT 9999 SCT030 BKN039 BKN050 16/11 Q1015

EXPIRED METARs :
  • 180130Z AUTO 09003KT 9999 FEW038 BKN057 16/11 Q1015
  • 180100Z AUTO VRB02KT 9999 FEW055 16/11 Q1016
  • 180030Z AUTO 08002KT CAVOK 15/10 Q1015
  • 180000Z AUTO VRB02KT CAVOK 15/10 Q1016
  • 172330Z AUTO 29003KT 180V350 CAVOK 14/10 Q1015

TAF TAF LEPP
Valid from the 17 at 21:00 until the 18 at 21:00 UTC


172000Z 1721/1821 VRB05KT 9999 SCT050 TX21/1814Z TN10/1806Z
PROB40
TEMPO 1809/1816 33010KT



MET'MAP, your aeronautical weather chart ! - Copyright ORBIFLY December 2007 - Disclaimer

ORBIFLY MET'MAP TEAM :

Programming & Development : Alexandra Zaïnal
Concept & Development : Baudouin d'Aumeries
Co-Development & Prog : Marc-Olivier Méhu
Technical & hardware support : Manuel Goepfert

Contact : metmap@orbifly.com




SOURCES & CREDITS :

   NOAA